sensor_id;sensor_type;location;lat;lon;timestamp;P1;durP1;ratioP1;P2;durP2;ratioP2
44722;SDS011;30451;48.638;10.624;2023-09-18T00:00:21;2.60;;;1.70;;
44722;SDS011;30451;48.638;10.624;2023-09-18T00:02:47;2.70;;;1.95;;
44722;SDS011;30451;48.638;10.624;2023-09-18T00:05:13;2.25;;;1.70;;
44722;SDS011;30451;48.638;10.624;2023-09-18T00:07:43;2.67;;;1.90;;
44722;SDS011;30451;48.638;10.624;2023-09-18T00:12:35;2.47;;;1.77;;
44722;SDS011;30451;48.638;10.624;2023-09-18T00:15:01;2.30;;;1.77;;
44722;SDS011;30451;48.638;10.624;2023-09-18T00:17:27;2.47;;;1.70;;
44722;SDS011;30451;48.638;10.624;2023-09-18T00:19:53;2.10;;;1.60;;
44722;SDS011;30451;48.638;10.624;2023-09-18T00:22:19;2.22;;;1.65;;
44722;SDS011;30451;48.638;10.624;2023-09-18T00:24:45;2.47;;;1.80;;
44722;SDS011;30451;48.638;10.624;2023-09-18T00:27:11;2.15;;;1.67;;
44722;SDS011;30451;48.638;10.624;2023-09-18T00:29:38;2.47;;;1.67;;
44722;SDS011;30451;48.638;10.624;2023-09-18T00:32:04;2.05;;;1.65;;
44722;SDS011;30451;48.638;10.624;2023-09-18T00:34:30;2.92;;;1.70;;
44722;SDS011;30451;48.638;10.624;2023-09-18T00:36:59;2.03;;;1.70;;
44722;SDS011;30451;48.638;10.624;2023-09-18T00:39:25;1.75;;;1.52;;
44722;SDS011;30451;48.638;10.624;2023-09-18T00:41:51;2.20;;;1.60;;
44722;SDS011;30451;48.638;10.624;2023-09-18T00:44:21;1.95;;;1.60;;
44722;SDS011;30451;48.638;10.624;2023-09-18T00:46:48;2.05;;;1.60;;
44722;SDS011;30451;48.638;10.624;2023-09-18T00:49:14;2.40;;;1.60;;
44722;SDS011;30451;48.638;10.624;2023-09-18T00:51:41;1.75;;;1.40;;
44722;SDS011;30451;48.638;10.624;2023-09-18T00:54:07;2.17;;;1.60;;
44722;SDS011;30451;48.638;10.624;2023-09-18T00:56:33;2.30;;;1.70;;
44722;SDS011;30451;48.638;10.624;2023-09-18T00:58:59;2.10;;;1.60;;
44722;SDS011;30451;48.638;10.624;2023-09-18T01:01:26;2.55;;;1.73;;
44722;SDS011;30451;48.638;10.624;2023-09-18T01:03:52;2.00;;;1.58;;
44722;SDS011;30451;48.638;10.624;2023-09-18T01:06:18;2.42;;;1.88;;
44722;SDS011;30451;48.638;10.624;2023-09-18T01:08:46;1.88;;;1.55;;
44722;SDS011;30451;48.638;10.624;2023-09-18T01:11:20;2.10;;;1.65;;
44722;SDS011;30451;48.638;10.624;2023-09-18T01:14:20;1.83;;;1.58;;
44722;SDS011;30451;48.638;10.624;2023-09-18T01:16:59;2.08;;;1.60;;
44722;SDS011;30451;48.638;10.624;2023-09-18T01:19:38;2.20;;;1.67;;
44722;SDS011;30451;48.638;10.624;2023-09-18T01:22:05;2.15;;;1.60;;
44722;SDS011;30451;48.638;10.624;2023-09-18T01:24:33;2.60;;;1.75;;
44722;SDS011;30451;48.638;10.624;2023-09-18T01:27:00;2.22;;;1.75;;
44722;SDS011;30451;48.638;10.624;2023-09-18T01:29:26;1.90;;;1.50;;
44722;SDS011;30451;48.638;10.624;2023-09-18T01:31:52;2.00;;;1.58;;
44722;SDS011;30451;48.638;10.624;2023-09-18T01:34:19;2.10;;;1.50;;
44722;SDS011;30451;48.638;10.624;2023-09-18T01:36:51;2.15;;;1.70;;
44722;SDS011;30451;48.638;10.624;2023-09-18T01:39:18;1.83;;;1.50;;
44722;SDS011;30451;48.638;10.624;2023-09-18T01:41:45;2.05;;;1.55;;
44722;SDS011;30451;48.638;10.624;2023-09-18T01:44:12;2.10;;;1.60;;
44722;SDS011;30451;48.638;10.624;2023-09-18T01:46:38;2.65;;;1.90;;
44722;SDS011;30451;48.638;10.624;2023-09-18T01:49:05;1.95;;;1.60;;
44722;SDS011;30451;48.638;10.624;2023-09-18T01:51:31;2.17;;;1.60;;
44722;SDS011;30451;48.638;10.624;2023-09-18T01:53:56;1.92;;;1.52;;
44722;SDS011;30451;48.638;10.624;2023-09-18T01:56:23;2.30;;;1.77;;
44722;SDS011;30451;48.638;10.624;2023-09-18T01:58:52;2.38;;;1.73;;
44722;SDS011;30451;48.638;10.624;2023-09-18T02:01:17;2.08;;;1.73;;
44722;SDS011;30451;48.638;10.624;2023-09-18T02:03:43;2.25;;;1.80;;
44722;SDS011;30451;48.638;10.624;2023-09-18T02:06:10;1.90;;;1.60;;
44722;SDS011;30451;48.638;10.624;2023-09-18T02:08:36;1.77;;;1.40;;
44722;SDS011;30451;48.638;10.624;2023-09-18T02:11:02;2.35;;;1.77;;
44722;SDS011;30451;48.638;10.624;2023-09-18T02:13:30;2.85;;;2.00;;
44722;SDS011;30451;48.638;10.624;2023-09-18T02:15:56;2.35;;;1.70;;
44722;SDS011;30451;48.638;10.624;2023-09-18T02:18:21;2.10;;;1.70;;
44722;SDS011;30451;48.638;10.624;2023-09-18T02:20:47;2.10;;;1.65;;
44722;SDS011;30451;48.638;10.624;2023-09-18T02:23:17;1.83;;;1.40;;
44722;SDS011;30451;48.638;10.624;2023-09-18T02:28:09;2.00;;;1.50;;
44722;SDS011;30451;48.638;10.624;2023-09-18T02:30:35;1.90;;;1.50;;
44722;SDS011;30451;48.638;10.624;2023-09-18T02:33:01;2.22;;;1.67;;
44722;SDS011;30451;48.638;10.624;2023-09-18T02:35:28;2.08;;;1.65;;
44722;SDS011;30451;48.638;10.624;2023-09-18T02:37:54;2.13;;;1.63;;
44722;SDS011;30451;48.638;10.624;2023-09-18T02:40:20;2.10;;;1.70;;
44722;SDS011;30451;48.638;10.624;2023-09-18T02:42:45;2.10;;;1.70;;
44722;SDS011;30451;48.638;10.624;2023-09-18T02:45:11;2.15;;;1.70;;
44722;SDS011;30451;48.638;10.624;2023-09-18T02:47:37;1.85;;;1.52;;
44722;SDS011;30451;48.638;10.624;2023-09-18T02:50:06;2.05;;;1.65;;
44722;SDS011;30451;48.638;10.624;2023-09-18T02:52:32;1.77;;;1.50;;
44722;SDS011;30451;48.638;10.624;2023-09-18T02:54:58;2.50;;;1.63;;
44722;SDS011;30451;48.638;10.624;2023-09-18T02:57:23;1.90;;;1.52;;
44722;SDS011;30451;48.638;10.624;2023-09-18T02:59:49;2.50;;;1.65;;
44722;SDS011;30451;48.638;10.624;2023-09-18T03:02:14;2.20;;;1.75;;
44722;SDS011;30451;48.638;10.624;2023-09-18T03:04:40;2.15;;;1.70;;
44722;SDS011;30451;48.638;10.624;2023-09-18T03:07:06;1.90;;;1.60;;
44722;SDS011;30451;48.638;10.624;2023-09-18T03:09:31;2.00;;;1.58;;
44722;SDS011;30451;48.638;10.624;2023-09-18T03:11:57;2.30;;;1.60;;
44722;SDS011;30451;48.638;10.624;2023-09-18T03:14:22;2.20;;;1.60;;
44722;SDS011;30451;48.638;10.624;2023-09-18T03:16:48;2.90;;;1.80;;
44722;SDS011;30451;48.638;10.624;2023-09-18T03:19:15;1.80;;;1.50;;
44722;SDS011;30451;48.638;10.624;2023-09-18T03:21:41;1.77;;;1.45;;
44722;SDS011;30451;48.638;10.624;2023-09-18T03:24:06;1.98;;;1.60;;
44722;SDS011;30451;48.638;10.624;2023-09-18T03:26:32;2.50;;;1.75;;
44722;SDS011;30451;48.638;10.624;2023-09-18T03:28:58;2.28;;;1.70;;
44722;SDS011;30451;48.638;10.624;2023-09-18T03:31:23;2.05;;;1.75;;
44722;SDS011;30451;48.638;10.624;2023-09-18T03:33:49;1.98;;;1.65;;
44722;SDS011;30451;48.638;10.624;2023-09-18T03:36:15;1.70;;;1.50;;
44722;SDS011;30451;48.638;10.624;2023-09-18T03:38:41;2.22;;;1.83;;
44722;SDS011;30451;48.638;10.624;2023-09-18T03:41:06;1.70;;;1.40;;
44722;SDS011;30451;48.638;10.624;2023-09-18T03:43:32;2.00;;;1.70;;
44722;SDS011;30451;48.638;10.624;2023-09-18T03:46:07;2.20;;;1.70;;
44722;SDS011;30451;48.638;10.624;2023-09-18T03:48:33;2.17;;;1.67;;
44722;SDS011;30451;48.638;10.624;2023-09-18T03:51:05;2.38;;;1.70;;
44722;SDS011;30451;48.638;10.624;2023-09-18T03:53:33;2.00;;;1.70;;
44722;SDS011;30451;48.638;10.624;2023-09-18T03:55:59;2.08;;;1.48;;
44722;SDS011;30451;48.638;10.624;2023-09-18T03:58:25;1.88;;;1.60;;
44722;SDS011;30451;48.638;10.624;2023-09-18T04:00:51;2.10;;;1.80;;
44722;SDS011;30451;48.638;10.624;2023-09-18T04:03:17;2.10;;;1.63;;
44722;SDS011;30451;48.638;10.624;2023-09-18T04:05:43;1.95;;;1.60;;
44722;SDS011;30451;48.638;10.624;2023-09-18T04:08:09;2.20;;;1.70;;
44722;SDS011;30451;48.638;10.624;2023-09-18T04:10:34;2.03;;;1.70;;
44722;SDS011;30451;48.638;10.624;2023-09-18T04:13:00;2.20;;;1.77;;
44722;SDS011;30451;48.638;10.624;2023-09-18T04:15:25;2.13;;;1.70;;
44722;SDS011;30451;48.638;10.624;2023-09-18T04:17:52;2.20;;;1.80;;
44722;SDS011;30451;48.638;10.624;2023-09-18T04:20:18;1.98;;;1.60;;
44722;SDS011;30451;48.638;10.624;2023-09-18T04:22:45;2.65;;;1.95;;
44722;SDS011;30451;48.638;10.624;2023-09-18T04:25:15;2.20;;;1.73;;
44722;SDS011;30451;48.638;10.624;2023-09-18T04:27:41;2.28;;;1.80;;
44722;SDS011;30451;48.638;10.624;2023-09-18T04:30:07;2.53;;;2.13;;
44722;SDS011;30451;48.638;10.624;2023-09-18T04:32:36;2.20;;;1.80;;
44722;SDS011;30451;48.638;10.624;2023-09-18T04:35:03;2.45;;;1.95;;
44722;SDS011;30451;48.638;10.624;2023-09-18T04:37:30;2.40;;;2.00;;
44722;SDS011;30451;48.638;10.624;2023-09-18T04:39:57;2.80;;;2.33;;
44722;SDS011;30451;48.638;10.624;2023-09-18T04:42:22;2.22;;;1.90;;
44722;SDS011;30451;48.638;10.624;2023-09-18T04:44:48;2.20;;;1.80;;
44722;SDS011;30451;48.638;10.624;2023-09-18T04:47:14;2.40;;;1.90;;
44722;SDS011;30451;48.638;10.624;2023-09-18T04:49:40;2.33;;;1.70;;
44722;SDS011;30451;48.638;10.624;2023-09-18T04:52:05;2.00;;;1.60;;
44722;SDS011;30451;48.638;10.624;2023-09-18T04:54:31;2.30;;;1.77;;
44722;SDS011;30451;48.638;10.624;2023-09-18T04:56:57;2.13;;;1.77;;
44722;SDS011;30451;48.638;10.624;2023-09-18T04:59:22;2.20;;;1.83;;
44722;SDS011;30451;48.638;10.624;2023-09-18T05:01:48;2.53;;;1.92;;
44722;SDS011;30451;48.638;10.624;2023-09-18T05:04:14;2.30;;;1.90;;
44722;SDS011;30451;48.638;10.624;2023-09-18T05:06:39;2.53;;;2.00;;
44722;SDS011;30451;48.638;10.624;2023-09-18T05:09:07;1.90;;;1.60;;
44722;SDS011;30451;48.638;10.624;2023-09-18T05:11:32;1.70;;;1.50;;
44722;SDS011;30451;48.638;10.624;2023-09-18T05:13:58;2.63;;;2.03;;
44722;SDS011;30451;48.638;10.624;2023-09-18T05:16:24;2.72;;;1.90;;
44722;SDS011;30451;48.638;10.624;2023-09-18T05:18:50;2.20;;;2.00;;
44722;SDS011;30451;48.638;10.624;2023-09-18T05:21:15;2.30;;;1.80;;
44722;SDS011;30451;48.638;10.624;2023-09-18T05:23:42;2.50;;;1.75;;
44722;SDS011;30451;48.638;10.624;2023-09-18T05:26:08;2.28;;;1.90;;
44722;SDS011;30451;48.638;10.624;2023-09-18T05:28:34;2.38;;;1.85;;
44722;SDS011;30451;48.638;10.624;2023-09-18T05:30:59;2.30;;;1.80;;
44722;SDS011;30451;48.638;10.624;2023-09-18T05:33:25;2.38;;;1.80;;
44722;SDS011;30451;48.638;10.624;2023-09-18T05:35:51;2.20;;;1.80;;
44722;SDS011;30451;48.638;10.624;2023-09-18T05:38:17;2.65;;;2.15;;
44722;SDS011;30451;48.638;10.624;2023-09-18T05:40:43;2.95;;;2.50;;
44722;SDS011;30451;48.638;10.624;2023-09-18T05:43:09;4.65;;;2.90;;
44722;SDS011;30451;48.638;10.624;2023-09-18T05:45:36;3.55;;;2.88;;
44722;SDS011;30451;48.638;10.624;2023-09-18T05:48:03;4.45;;;2.90;;
44722;SDS011;30451;48.638;10.624;2023-09-18T05:50:29;3.92;;;3.38;;
44722;SDS011;30451;48.638;10.624;2023-09-18T05:52:56;3.60;;;3.25;;
44722;SDS011;30451;48.638;10.624;2023-09-18T05:55:25;4.20;;;3.60;;
44722;SDS011;30451;48.638;10.624;2023-09-18T05:57:51;4.18;;;3.28;;
44722;SDS011;30451;48.638;10.624;2023-09-18T06:00:17;4.38;;;3.70;;
44722;SDS011;30451;48.638;10.624;2023-09-18T06:02:43;4.72;;;2.92;;
44722;SDS011;30451;48.638;10.624;2023-09-18T06:05:10;3.30;;;2.67;;
44722;SDS011;30451;48.638;10.624;2023-09-18T06:07:36;3.40;;;3.03;;
44722;SDS011;30451;48.638;10.624;2023-09-18T06:10:02;3.60;;;3.00;;
44722;SDS011;30451;48.638;10.624;2023-09-18T06:12:28;3.90;;;2.88;;
44722;SDS011;30451;48.638;10.624;2023-09-18T06:14:54;5.10;;;3.35;;
44722;SDS011;30451;48.638;10.624;2023-09-18T06:17:20;4.43;;;3.70;;
44722;SDS011;30451;48.638;10.624;2023-09-18T06:19:45;4.03;;;3.28;;
44722;SDS011;30451;48.638;10.624;2023-09-18T06:22:11;4.28;;;3.50;;
44722;SDS011;30451;48.638;10.624;2023-09-18T06:24:37;4.28;;;3.60;;
44722;SDS011;30451;48.638;10.624;2023-09-18T06:27:03;4.90;;;3.40;;
44722;SDS011;30451;48.638;10.624;2023-09-18T06:29:29;3.60;;;3.20;;
44722;SDS011;30451;48.638;10.624;2023-09-18T06:31:56;4.63;;;3.53;;
44722;SDS011;30451;48.638;10.624;2023-09-18T06:34:21;4.75;;;3.80;;
44722;SDS011;30451;48.638;10.624;2023-09-18T06:36:47;6.55;;;3.35;;
44722;SDS011;30451;48.638;10.624;2023-09-18T06:39:12;3.83;;;3.35;;
44722;SDS011;30451;48.638;10.624;2023-09-18T06:41:38;3.67;;;3.33;;
44722;SDS011;30451;48.638;10.624;2023-09-18T06:44:04;4.30;;;3.40;;
44722;SDS011;30451;48.638;10.624;2023-09-18T06:46:30;3.92;;;3.53;;
44722;SDS011;30451;48.638;10.624;2023-09-18T06:48:55;4.88;;;3.47;;
44722;SDS011;30451;48.638;10.624;2023-09-18T06:51:22;5.05;;;3.30;;
44722;SDS011;30451;48.638;10.624;2023-09-18T06:53:48;3.58;;;3.22;;
44722;SDS011;30451;48.638;10.624;2023-09-18T06:56:14;3.50;;;3.00;;
44722;SDS011;30451;48.638;10.624;2023-09-18T06:58:39;3.35;;;3.00;;
44722;SDS011;30451;48.638;10.624;2023-09-18T07:01:05;4.18;;;3.20;;
44722;SDS011;30451;48.638;10.624;2023-09-18T07:03:32;4.10;;;3.25;;
44722;SDS011;30451;48.638;10.624;2023-09-18T07:05:59;3.80;;;3.22;;
44722;SDS011;30451;48.638;10.624;2023-09-18T07:08:25;3.75;;;3.15;;
44722;SDS011;30451;48.638;10.624;2023-09-18T07:10:51;4.60;;;3.30;;
44722;SDS011;30451;48.638;10.624;2023-09-18T07:13:16;4.05;;;3.10;;
44722;SDS011;30451;48.638;10.624;2023-09-18T07:15:42;4.13;;;3.25;;
44722;SDS011;30451;48.638;10.624;2023-09-18T07:18:09;3.65;;;3.00;;
44722;SDS011;30451;48.638;10.624;2023-09-18T07:20:39;3.70;;;3.25;;
44722;SDS011;30451;48.638;10.624;2023-09-18T07:23:10;3.70;;;3.28;;
44722;SDS011;30451;48.638;10.624;2023-09-18T07:25:36;4.45;;;3.22;;
44722;SDS011;30451;48.638;10.624;2023-09-18T07:28:06;4.88;;;3.28;;
44722;SDS011;30451;48.638;10.624;2023-09-18T07:30:31;3.63;;;2.70;;
44722;SDS011;30451;48.638;10.624;2023-09-18T07:32:58;3.25;;;2.95;;
44722;SDS011;30451;48.638;10.624;2023-09-18T07:35:26;3.33;;;2.97;;
44722;SDS011;30451;48.638;10.624;2023-09-18T07:37:52;4.18;;;2.85;;
44722;SDS011;30451;48.638;10.624;2023-09-18T07:40:18;3.40;;;2.88;;
44722;SDS011;30451;48.638;10.624;2023-09-18T07:42:44;3.72;;;2.85;;
44722;SDS011;30451;48.638;10.624;2023-09-18T07:45:10;4.80;;;3.20;;
44722;SDS011;30451;48.638;10.624;2023-09-18T07:47:36;3.65;;;2.90;;
44722;SDS011;30451;48.638;10.624;2023-09-18T07:50:02;3.08;;;2.75;;
44722;SDS011;30451;48.638;10.624;2023-09-18T07:52:28;3.60;;;2.72;;
44722;SDS011;30451;48.638;10.624;2023-09-18T07:54:54;3.63;;;2.75;;
44722;SDS011;30451;48.638;10.624;2023-09-18T07:57:20;3.80;;;2.80;;
44722;SDS011;30451;48.638;10.624;2023-09-18T07:59:47;3.60;;;2.75;;
44722;SDS011;30451;48.638;10.624;2023-09-18T08:02:13;3.40;;;3.10;;
44722;SDS011;30451;48.638;10.624;2023-09-18T08:04:39;3.47;;;2.80;;
44722;SDS011;30451;48.638;10.624;2023-09-18T08:07:05;3.50;;;3.00;;
44722;SDS011;30451;48.638;10.624;2023-09-18T08:09:32;3.20;;;2.67;;
44722;SDS011;30451;48.638;10.624;2023-09-18T08:14:33;3.25;;;2.80;;
44722;SDS011;30451;48.638;10.624;2023-09-18T08:17:03;3.40;;;2.90;;
44722;SDS011;30451;48.638;10.624;2023-09-18T08:19:29;4.15;;;2.97;;
44722;SDS011;30451;48.638;10.624;2023-09-18T08:21:56;3.55;;;3.00;;
44722;SDS011;30451;48.638;10.624;2023-09-18T08:24:23;3.05;;;2.58;;
44722;SDS011;30451;48.638;10.624;2023-09-18T08:26:48;4.97;;;3.22;;
44722;SDS011;30451;48.638;10.624;2023-09-18T08:29:14;4.07;;;3.00;;
44722;SDS011;30451;48.638;10.624;2023-09-18T08:31:40;3.90;;;2.85;;
44722;SDS011;30451;48.638;10.624;2023-09-18T08:34:06;3.40;;;2.95;;
44722;SDS011;30451;48.638;10.624;2023-09-18T08:36:32;3.47;;;2.70;;
44722;SDS011;30451;48.638;10.624;2023-09-18T08:38:58;4.00;;;2.70;;
44722;SDS011;30451;48.638;10.624;2023-09-18T08:41:24;3.45;;;3.00;;
44722;SDS011;30451;48.638;10.624;2023-09-18T08:43:53;3.63;;;2.92;;
44722;SDS011;30451;48.638;10.624;2023-09-18T08:46:24;4.03;;;3.05;;
44722;SDS011;30451;48.638;10.624;2023-09-18T08:48:50;3.55;;;2.90;;
44722;SDS011;30451;48.638;10.624;2023-09-18T08:51:16;3.55;;;3.10;;
44722;SDS011;30451;48.638;10.624;2023-09-18T08:53:43;3.88;;;2.80;;
44722;SDS011;30451;48.638;10.624;2023-09-18T08:56:10;3.40;;;2.80;;
44722;SDS011;30451;48.638;10.624;2023-09-18T08:58:39;4.30;;;2.83;;
44722;SDS011;30451;48.638;10.624;2023-09-18T09:03:42;4.38;;;3.20;;
44722;SDS011;30451;48.638;10.624;2023-09-18T09:06:11;3.05;;;2.75;;
44722;SDS011;30451;48.638;10.624;2023-09-18T09:08:37;3.15;;;2.78;;
44722;SDS011;30451;48.638;10.624;2023-09-18T09:11:04;3.53;;;2.80;;
44722;SDS011;30451;48.638;10.624;2023-09-18T09:13:30;3.30;;;2.90;;
44722;SDS011;30451;48.638;10.624;2023-09-18T09:15:58;3.47;;;2.85;;
44722;SDS011;30451;48.638;10.624;2023-09-18T09:23:23;3.05;;;2.70;;
44722;SDS011;30451;48.638;10.624;2023-09-18T09:25:50;3.22;;;2.72;;
44722;SDS011;30451;48.638;10.624;2023-09-18T09:28:16;3.50;;;2.70;;
44722;SDS011;30451;48.638;10.624;2023-09-18T09:31:00;3.70;;;2.70;;
44722;SDS011;30451;48.638;10.624;2023-09-18T09:33:27;3.20;;;2.50;;
44722;SDS011;30451;48.638;10.624;2023-09-18T09:35:54;3.60;;;2.70;;
44722;SDS011;30451;48.638;10.624;2023-09-18T09:38:20;3.92;;;2.63;;
44722;SDS011;30451;48.638;10.624;2023-09-18T09:40:57;4.07;;;2.63;;
44722;SDS011;30451;48.638;10.624;2023-09-18T09:43:26;3.97;;;2.88;;
44722;SDS011;30451;48.638;10.624;2023-09-18T09:45:59;3.72;;;2.88;;
44722;SDS011;30451;48.638;10.624;2023-09-18T09:48:26;3.42;;;2.75;;
44722;SDS011;30451;48.638;10.624;2023-09-18T09:50:52;4.95;;;2.72;;
44722;SDS011;30451;48.638;10.624;2023-09-18T09:53:43;3.72;;;3.08;;
44722;SDS011;30451;48.638;10.624;2023-09-18T09:56:12;3.22;;;2.53;;
44722;SDS011;30451;48.638;10.624;2023-09-18T09:58:38;4.90;;;2.92;;
44722;SDS011;30451;48.638;10.624;2023-09-18T10:01:09;3.78;;;2.70;;
44722;SDS011;30451;48.638;10.624;2023-09-18T10:03:42;3.15;;;2.53;;
44722;SDS011;30451;48.638;10.624;2023-09-18T10:06:09;3.45;;;2.67;;
44722;SDS011;30451;48.638;10.624;2023-09-18T10:08:38;3.22;;;2.70;;
44722;SDS011;30451;48.638;10.624;2023-09-18T10:11:07;3.30;;;2.60;;
44722;SDS011;30451;48.638;10.624;2023-09-18T10:13:40;4.82;;;2.63;;
44722;SDS011;30451;48.638;10.624;2023-09-18T10:16:11;3.88;;;2.60;;
44722;SDS011;30451;48.638;10.624;2023-09-18T10:18:44;3.10;;;2.58;;
44722;SDS011;30451;48.638;10.624;2023-09-18T10:21:27;4.30;;;2.72;;
44722;SDS011;30451;48.638;10.624;2023-09-18T10:24:16;3.47;;;2.72;;
44722;SDS011;30451;48.638;10.624;2023-09-18T10:26:51;4.03;;;2.63;;
44722;SDS011;30451;48.638;10.624;2023-09-18T10:29:21;3.33;;;2.55;;
44722;SDS011;30451;48.638;10.624;2023-09-18T10:31:49;3.40;;;2.53;;
44722;SDS011;30451;48.638;10.624;2023-09-18T10:34:17;3.83;;;2.58;;
44722;SDS011;30451;48.638;10.624;2023-09-18T10:36:45;3.65;;;2.50;;
44722;SDS011;30451;48.638;10.624;2023-09-18T10:39:13;3.22;;;2.38;;
44722;SDS011;30451;48.638;10.624;2023-09-18T10:41:44;2.70;;;2.15;;
44722;SDS011;30451;48.638;10.624;2023-09-18T10:46:41;3.53;;;2.40;;
44722;SDS011;30451;48.638;10.624;2023-09-18T10:49:06;4.13;;;2.30;;
44722;SDS011;30451;48.638;10.624;2023-09-18T10:51:32;3.10;;;2.40;;
44722;SDS011;30451;48.638;10.624;2023-09-18T10:54:04;3.22;;;2.00;;
44722;SDS011;30451;48.638;10.624;2023-09-18T10:56:30;2.90;;;2.30;;
44722;SDS011;30451;48.638;10.624;2023-09-18T10:59:00;3.42;;;2.30;;
44722;SDS011;30451;48.638;10.624;2023-09-18T11:01:29;3.72;;;2.38;;
44722;SDS011;30451;48.638;10.624;2023-09-18T11:03:59;3.42;;;2.42;;
44722;SDS011;30451;48.638;10.624;2023-09-18T11:06:26;3.60;;;2.22;;
44722;SDS011;30451;48.638;10.624;2023-09-18T11:08:59;3.72;;;2.20;;
44722;SDS011;30451;48.638;10.624;2023-09-18T11:11:29;4.10;;;2.13;;
44722;SDS011;30451;48.638;10.624;2023-09-18T11:13:58;3.67;;;2.30;;
44722;SDS011;30451;48.638;10.624;2023-09-18T11:21:29;2.70;;;2.10;;
44722;SDS011;30451;48.638;10.624;2023-09-18T11:24:00;3.08;;;2.30;;
44722;SDS011;30451;48.638;10.624;2023-09-18T11:26:31;3.65;;;2.25;;
44722;SDS011;30451;48.638;10.624;2023-09-18T11:29:08;3.88;;;2.20;;
44722;SDS011;30451;48.638;10.624;2023-09-18T11:31:45;2.92;;;2.10;;
44722;SDS011;30451;48.638;10.624;2023-09-18T11:34:28;3.40;;;2.13;;
44722;SDS011;30451;48.638;10.624;2023-09-18T11:37:21;2.95;;;2.10;;
44722;SDS011;30451;48.638;10.624;2023-09-18T11:39:48;3.15;;;1.95;;
44722;SDS011;30451;48.638;10.624;2023-09-18T11:42:21;2.95;;;2.08;;
44722;SDS011;30451;48.638;10.624;2023-09-18T11:44:51;3.33;;;2.42;;
44722;SDS011;30451;48.638;10.624;2023-09-18T11:47:23;3.30;;;2.00;;
44722;SDS011;30451;48.638;10.624;2023-09-18T11:52:19;3.05;;;2.10;;
44722;SDS011;30451;48.638;10.624;2023-09-18T11:54:46;3.35;;;2.20;;
44722;SDS011;30451;48.638;10.624;2023-09-18T11:57:13;3.15;;;2.15;;
44722;SDS011;30451;48.638;10.624;2023-09-18T11:59:40;3.22;;;2.00;;
44722;SDS011;30451;48.638;10.624;2023-09-18T12:02:11;3.70;;;2.00;;
44722;SDS011;30451;48.638;10.624;2023-09-18T12:05:33;3.65;;;2.00;;
44722;SDS011;30451;48.638;10.624;2023-09-18T12:07:51;2.20;;;1.80;;
44722;SDS011;30451;48.638;10.624;2023-09-18T12:10:18;3.55;;;2.03;;
44722;SDS011;30451;48.638;10.624;2023-09-18T12:12:47;2.85;;;2.00;;
44722;SDS011;30451;48.638;10.624;2023-09-18T12:15:14;2.78;;;2.00;;
44722;SDS011;30451;48.638;10.624;2023-09-18T12:17:42;3.03;;;1.80;;
44722;SDS011;30451;48.638;10.624;2023-09-18T12:20:14;3.03;;;2.10;;
44722;SDS011;30451;48.638;10.624;2023-09-18T12:22:49;2.83;;;1.98;;
44722;SDS011;30451;48.638;10.624;2023-09-18T12:25:15;2.60;;;1.98;;
44722;SDS011;30451;48.638;10.624;2023-09-18T12:27:44;2.08;;;1.70;;
44722;SDS011;30451;48.638;10.624;2023-09-18T12:30:10;2.55;;;1.70;;
44722;SDS011;30451;48.638;10.624;2023-09-18T12:32:37;2.72;;;2.00;;
44722;SDS011;30451;48.638;10.624;2023-09-18T12:35:05;2.40;;;1.80;;
44722;SDS011;30451;48.638;10.624;2023-09-18T12:37:34;2.55;;;1.80;;
44722;SDS011;30451;48.638;10.624;2023-09-18T12:40:00;2.35;;;1.67;;
44722;SDS011;30451;48.638;10.624;2023-09-18T12:42:26;2.15;;;1.83;;
44722;SDS011;30451;48.638;10.624;2023-09-18T12:44:52;3.65;;;1.90;;
44722;SDS011;30451;48.638;10.624;2023-09-18T12:47:18;3.25;;;1.85;;
44722;SDS011;30451;48.638;10.624;2023-09-18T12:49:43;2.42;;;1.77;;
44722;SDS011;30451;48.638;10.624;2023-09-18T12:52:09;2.42;;;1.80;;
44722;SDS011;30451;48.638;10.624;2023-09-18T12:54:39;4.28;;;1.60;;
44722;SDS011;30451;48.638;10.624;2023-09-18T12:57:06;2.75;;;1.63;;
44722;SDS011;30451;48.638;10.624;2023-09-18T12:59:33;2.55;;;1.80;;
44722;SDS011;30451;48.638;10.624;2023-09-18T13:02:02;3.28;;;1.98;;
44722;SDS011;30451;48.638;10.624;2023-09-18T13:04:34;2.90;;;1.60;;
44722;SDS011;30451;48.638;10.624;2023-09-18T13:07:14;2.42;;;1.80;;
44722;SDS011;30451;48.638;10.624;2023-09-18T13:09:40;3.00;;;1.92;;
44722;SDS011;30451;48.638;10.624;2023-09-18T13:12:06;2.90;;;1.80;;
44722;SDS011;30451;48.638;10.624;2023-09-18T13:17:25;2.53;;;1.73;;
44722;SDS011;30451;48.638;10.624;2023-09-18T13:19:51;3.63;;;1.77;;
44722;SDS011;30451;48.638;10.624;2023-09-18T13:22:23;2.88;;;1.67;;
44722;SDS011;30451;48.638;10.624;2023-09-18T13:24:55;2.67;;;1.80;;
44722;SDS011;30451;48.638;10.624;2023-09-18T13:27:21;2.65;;;1.83;;
44722;SDS011;30451;48.638;10.624;2023-09-18T13:29:48;1.83;;;1.40;;
44722;SDS011;30451;48.638;10.624;2023-09-18T13:32:14;3.15;;;1.50;;
44722;SDS011;30451;48.638;10.624;2023-09-18T13:34:40;3.30;;;1.67;;
44722;SDS011;30451;48.638;10.624;2023-09-18T13:37:05;2.30;;;1.38;;
44722;SDS011;30451;48.638;10.624;2023-09-18T13:39:31;2.90;;;1.40;;
44722;SDS011;30451;48.638;10.624;2023-09-18T13:41:57;2.30;;;1.60;;
44722;SDS011;30451;48.638;10.624;2023-09-18T13:44:22;2.22;;;1.52;;
44722;SDS011;30451;48.638;10.624;2023-09-18T13:46:48;3.55;;;1.65;;
44722;SDS011;30451;48.638;10.624;2023-09-18T13:49:13;2.45;;;1.58;;
44722;SDS011;30451;48.638;10.624;2023-09-18T13:51:39;3.30;;;1.70;;
44722;SDS011;30451;48.638;10.624;2023-09-18T13:54:04;2.72;;;1.88;;
44722;SDS011;30451;48.638;10.624;2023-09-18T13:56:32;2.83;;;2.00;;
44722;SDS011;30451;48.638;10.624;2023-09-18T13:58:58;2.67;;;1.90;;
44722;SDS011;30451;48.638;10.624;2023-09-18T14:01:23;3.00;;;1.70;;
44722;SDS011;30451;48.638;10.624;2023-09-18T14:03:51;2.92;;;1.80;;
44722;SDS011;30451;48.638;10.624;2023-09-18T14:06:16;2.85;;;1.80;;
44722;SDS011;30451;48.638;10.624;2023-09-18T14:08:42;1.90;;;1.50;;
44722;SDS011;30451;48.638;10.624;2023-09-18T14:11:07;3.60;;;1.80;;
44722;SDS011;30451;48.638;10.624;2023-09-18T14:13:33;2.40;;;1.77;;
44722;SDS011;30451;48.638;10.624;2023-09-18T14:15:59;3.45;;;1.70;;
44722;SDS011;30451;48.638;10.624;2023-09-18T14:18:24;2.67;;;1.70;;
44722;SDS011;30451;48.638;10.624;2023-09-18T14:20:50;2.60;;;1.80;;
44722;SDS011;30451;48.638;10.624;2023-09-18T14:23:16;3.10;;;1.67;;
44722;SDS011;30451;48.638;10.624;2023-09-18T14:25:41;3.15;;;1.70;;
44722;SDS011;30451;48.638;10.624;2023-09-18T14:28:07;3.58;;;1.70;;
44722;SDS011;30451;48.638;10.624;2023-09-18T14:30:33;2.00;;;1.50;;
44722;SDS011;30451;48.638;10.624;2023-09-18T14:32:58;2.13;;;1.50;;
44722;SDS011;30451;48.638;10.624;2023-09-18T14:35:26;2.10;;;1.70;;
44722;SDS011;30451;48.638;10.624;2023-09-18T14:37:52;2.50;;;1.60;;
44722;SDS011;30451;48.638;10.624;2023-09-18T14:40:18;3.10;;;1.50;;
44722;SDS011;30451;48.638;10.624;2023-09-18T14:42:46;4.20;;;1.95;;
44722;SDS011;30451;48.638;10.624;2023-09-18T14:45:11;3.33;;;1.70;;
44722;SDS011;30451;48.638;10.624;2023-09-18T14:47:37;3.75;;;1.70;;
44722;SDS011;30451;48.638;10.624;2023-09-18T14:50:03;2.67;;;1.60;;
44722;SDS011;30451;48.638;10.624;2023-09-18T14:52:30;3.55;;;1.52;;
44722;SDS011;30451;48.638;10.624;2023-09-18T14:54:57;2.30;;;1.50;;
44722;SDS011;30451;48.638;10.624;2023-09-18T14:57:23;2.70;;;1.63;;
44722;SDS011;30451;48.638;10.624;2023-09-18T14:59:48;2.08;;;1.52;;
44722;SDS011;30451;48.638;10.624;2023-09-18T15:02:14;2.20;;;1.60;;